Kingston upon Thames, United Kingdom
Current Conditions -  °F | °C
As of 6:50 PM on Thursday 30 Oct 2014 (Local Time) from EGLL Reporting Station
Clear Clear  
Wind Chill: 59°   Ceiling: Unl
Heat Index: 59°   Visibility: 4mi
Dew Point: 57°   Wind: 6mph
Humidity: 94%   Direction: 150°SSE
Pressure: 30.09"   Gusts: NA
Location:  51.41°N, 0.3°W
Report Text: EGLL 301850Z 15005KT 110V200 7000 NSC 15/14 Q1019 NOSIG
Loading
Personal Weather Stations






























Interactive Weather Map
Tropical Storm Tracking
New forecast layout! Learn more

10-Day Weather Forecast

Advertisements
Track Severe Weather on mobile